• Join FlightAware (Why Join?)
  • Login
  • US Flag 
02:44PM EDT


 

Airport Tracker/Info


-or-


 

Live Flight TrackerFlight Track Log ✈ UAL822 ✈ 28-Apr-2013 ✈ KDEN - KORD

Flight Track Log - Related Links

Times and Time Zones

All times are in EDT time to prevent confusion due to time zone crossing. See the UAL822 flight status page for this flight to view local times or setup timezone preferences in your user account.

Time Position Orientation Groundspeed Altitude Reporting Facility
EDT Latitude Longitude Course Direction KTS MPH feet Rate Location/Type
08:01PM 39.9167 -104.6833 33° Northeast 180 207 6,700  Level Denver TRACON
08:02PM 39.9667 -104.6500 27° Northeast 233 268 7,900 1,620 Climbing Denver TRACON
08:03PM 40.0333 -104.6000 30° Northeast 263 303 9,800 2,040 Climbing Denver TRACON
08:04PM 40.2679 -104.5000 North  Level FlightAware Approximate
08:04PM 40.1000 -104.5500 30° Northeast 296 341 11,600  Level Denver TRACON
08:05PM 40.3718 -104.4283 37° Northeast  Level FlightAware Approximate
08:05PM 40.1336 -104.5306 24° Northeast 317 365 12,400  Level Denver Center
08:06PM 40.4628 -104.3224 33° Northeast  Level FlightAware Approximate
08:06PM 40.2281 -104.4678 27° Northeast 354 407 15,200  Level Denver Center
08:07PM 40.5653 -104.2345 33° Northeast  Level FlightAware Approximate
08:07PM 40.3133 -104.4092 28° Northeast 348 400 19,100  Level Denver Center
08:08PM 40.4142 -104.3447 26° Northeast 375 432 22,600 2,700 Climbing Denver Center
08:09PM 40.4939 -104.2892 28° Northeast 362 417 24,800 1,560 Climbing Denver Center
08:10PM 40.6067 -104.2019 30° Northeast 403 464 25,900 1,080 Climbing Denver Center
08:11PM 40.6947 -104.0836 46° Northeast 442 509 27,100 1,320 Climbing Denver Center
08:12PM 40.7831 -103.9733 43° Northeast 432 497 28,700 1,260 Climbing Denver Center
08:13PM 40.8731 -103.8567 44° Northeast 446 513 29,800 1,140 Climbing Denver Center
08:14PM 40.9642 -103.7394 44° Northeast 453 521 31,100 1,200 Climbing Denver Center
08:15PM 41.0467 -103.6319 44° Northeast 457 526 32,300 1,200 Climbing Denver Center
08:16PM 41.1467 -103.5025 44° Northeast 451 519 33,800 1,080 Climbing Denver Center
08:17PM 41.2592 -103.3556 44° Northeast 446 513 34,800 540 Climbing Denver Center
08:18PM 41.3433 -103.2383 46° Northeast 456 525 35,000 60 Climbing Denver Center
08:19PM 41.4031 -103.0606 66° East 479 551 35,000  Level Denver Center
08:20PM 41.4325 -102.8964 76° East 480 552 35,000  Level Denver Center
08:21PM 41.4661 -102.7028 77° East 481 554 35,000  Level Denver Center
08:22PM 41.4978 -102.5222 77° East 484 557 35,000  Level Denver Center
08:24PM 41.5281 -102.3550 76° East 484 557 35,000  Level Denver Center
08:25PM 41.5608 -102.1592 77° East 484 557 35,000  Level Denver Center
08:26PM 41.5894 -101.9917 77° East 483 556 35,000  Level Denver Center
08:27PM 41.6231 -101.7961 77° East 483 556 35,000  Level Denver Center
08:28PM 41.6503 -101.6297 78° East 479 551 35,000  Level Denver Center
08:29PM 41.6781 -101.4617 77° East 481 554 35,000  Level Denver Center
08:30PM 41.7097 -101.2661 78° East 481 554 35,000  Level Denver Center
08:31PM 41.7361 -101.0983 78° East 480 552 35,000  Level Denver Center
08:32PM 41.7714 -100.8742 78° East 481 554 35,000  Level Denver Center
08:33PM 41.7986 -100.7056 78° East 481 554 35,000  Level Denver Center
08:34PM 41.8283 -100.5086 78° East 483 556 35,000  Level Denver Center
08:35PM 41.8556 -100.3389 78° East 484 557 35,000  Level Denver Center
08:36PM 41.8856 -100.1411 78° East 484 557 35,000  Level Denver Center
08:37PM 41.9067 -100.0097 78° East 488 562 35,000  Level Minneapolis Center
08:38PM 41.9322 -99.8322 79° East 487 560 35,000  Level Minneapolis Center
08:38PM 41.9358 -99.8000 81° East 486 559 35,000  Level Denver Center
08:40PM 41.9686 -99.5847 78° East 482 555 35,000  Level Denver Center
08:41PM 41.9933 -99.4078 79° East 480 552 35,000  Level Denver Center
08:42PM 42.0297 -99.1564 79° East 486 559 35,000  Level Denver Center
08:42PM 42.0392 -99.0867 80° East 482 555 35,000  Level Minneapolis Center
08:43PM 42.0647 -98.9089 79° East 482 555 35,000  Level Minneapolis Center
08:44PM 42.0894 -98.7300 79° East 484 557 35,000  Level Minneapolis Center
08:45PM 42.1139 -98.5517 79° East 483 556 35,000  Level Minneapolis Center
08:46PM 42.1383 -98.3739 79° East 482 555 35,000  Level Minneapolis Center
08:47PM 42.1625 -98.1953 80° East 482 555 35,000  Level Minneapolis Center
08:48PM 42.1864 -98.0169 80° East 483 556 35,000  Level Minneapolis Center
08:49PM 42.2139 -97.8086 80° East 486 559 35,000  Level Minneapolis Center
08:50PM 42.2364 -97.6292 80° East 487 560 35,000  Level Minneapolis Center
08:51PM 42.2594 -97.4486 80° East 487 560 35,000  Level Minneapolis Center
08:52PM 42.2817 -97.2694 80° East 485 558 35,000  Level Minneapolis Center
08:53PM 42.3033 -97.0886 81° East 486 559 35,000  Level Minneapolis Center
08:54PM 42.3261 -96.9081 80° East 487 560 35,000  Level Minneapolis Center
08:55PM 42.3481 -96.7264 81° East 488 562 35,000  Level Minneapolis Center
08:56PM 42.3689 -96.5461 81° East 486 559 35,000  Level Minneapolis Center
08:58PM 42.3947 -96.3297 81° East 484 557 35,000  Level Minneapolis Center
08:59PM 42.4150 -96.1492 81° East 484 557 35,000  Level Minneapolis Center
09:00PM 42.4358 -95.9664 81° East 487 560 35,000  Level Minneapolis Center
09:01PM 42.4558 -95.7864 81° East 484 557 35,000  Level Minneapolis Center
09:02PM 42.4758 -95.6017 82° East 491 565 35,000  Level Minneapolis Center
09:03PM 42.4950 -95.4214 82° East 485 558 35,000  Level Minneapolis Center
09:04PM 42.4975 -95.2397 89° East 482 555 35,000  Level Minneapolis Center
09:05PM 42.4972 -95.0556 90° East 484 557 35,000  Level Minneapolis Center
09:06PM 42.4953 -94.8331 91° East 491 565 35,000  Level Minneapolis Center
09:07PM 42.4942 -94.6503 90° East 487 560 35,000  Level Minneapolis Center
09:08PM 42.4925 -94.4753 91° East 486 559 35,000  Level Minneapolis Center
09:09PM 42.4911 -94.2956 91° East 485 558 35,000  Level Minneapolis Center
09:10PM 42.4894 -94.1150 91° East 485 558 35,000  Level Minneapolis Center
09:11PM 42.4861 -93.8978 91° East 485 558 35,000  Level Minneapolis Center
09:12PM 42.4839 -93.7181 91° East 485 558 35,000  Level Minneapolis Center
09:13PM 42.4808 -93.5381 91° East 483 556 35,000  Level Minneapolis Center
09:14PM 42.4786 -93.3572 91° East 486 559 35,000  Level Minneapolis Center
09:15PM 42.4747 -93.1783 92° East 481 554 35,000  Level Minneapolis Center
09:16PM 42.4722 -93.0011 91° East 478 550 35,000  Level Minneapolis Center
09:17PM 42.4672 -92.7864 92° East 480 552 35,000  Level Minneapolis Center
09:18PM 42.4633 -92.6094 92° East 478 550 35,000  Level Minneapolis Center
09:19PM 42.4583 -92.4319 92° East 478 550 35,000  Level Minneapolis Center
09:20PM 42.4539 -92.2561 92° East 475 547 35,000  Level Minneapolis Center
09:21PM 42.4489 -92.0797 92° East 475 547 35,000  Level Minneapolis Center
09:22PM 42.4422 -91.8692 92° East 471 542 35,000 -360 Level Chicago Center
09:23PM 42.4381 -91.6967 92° East 469 540 34,300 -960 Descending Chicago Center
09:24PM 42.4308 -91.4883 93° East 472 543 33,100 -660 Descending Chicago Center
09:25PM 42.4236 -91.3111 93° East 479 551 33,000 -300 Descending Chicago Center
09:26PM 42.4169 -91.1361 93° East 474 545 32,500 -780 Descending Chicago Center
09:28PM 42.4039 -90.7858 93° East 472 543 30,700 -1,020 Descending Chicago Center
09:30PM 42.4136 -90.5786 86° East 466 536 29,500 -1,080 Descending Chicago Center
09:31PM 42.4308 -90.4100 82° East 460 529 28,600 -960 Descending Chicago Center
09:32PM 42.4478 -90.2425 82° East 455 524 27,600 -1,020 Descending Chicago Center
09:33PM 42.4656 -90.0761 82° East 453 521 26,600 -1,080 Descending Chicago Center
09:34PM 42.4842 -89.8850 82° East 456 525 25,400 -1,620 Descending Chicago Center
09:35PM 42.5000 -89.7197 83° East 444 511 23,300 -2,160 Descending Chicago Center
09:36PM 42.5161 -89.5614 82° East 429 494 21,000 -2,460 Descending Chicago Center
09:37PM 42.5292 -89.4078 83° East 414 476 18,300 -2,520 Descending Chicago Center
09:38PM 42.5453 -89.2364 83° East 395 455 15,800 -2,100 Descending Chicago Center
09:39PM 42.5536 -89.0961 85° East 380 437 14,000 -900 Descending Chicago Center
09:40PM 42.5181 -88.9758 112° Southeast 342 394 14,000 -180 Level Chicago Center
09:41PM 42.4853 -88.8656 112° Southeast 321 369 13,700 -1,020 Descending Chicago Center
09:42PM 42.4525 -88.7564 112° Southeast 315 362 12,000 -1,740 Descending Chicago Center
09:43PM 42.4200 -88.6503 113° Southeast 308 354 10,200 -1,500 Descending Chicago Center
09:44PM 42.3836 -88.5294 112° Southeast 299 344 9,000 -780 Descending Chicago Center
09:45PM 42.3475 -88.4286 116° Southeast 298 343 8,700 -900 Descending Chicago Center
09:46PM 42.3075 -88.3386 121° Southeast 297 342 7,200 -840 Descending Chicago Center
09:47PM 42.2683 -88.2447 119° Southeast 291 335 7,000 -240 Descending Chicago Center
09:48PM 42.2086 -88.1811 142° Southeast 272 313 6,800 -420 Descending Chicago Center
09:49PM 42.1561 -88.1219 140° Southeast 209 241 6,200 -600 Descending Chicago Center